Time;durP1;ratioP1;P1;durP2;ratioP2;P2;SDS_P1;SDS_P2;PMS_P1;PMS_P2;Temp;Humidity;BMP_temperature;BMP_pressure;BME280_temperature;BME280_humidity;BME280_pressure;Samples;Min_cycle;Max_cycle;Signal;HPM_P1;HPM_P2
2022/02/20 00:01:20;;;;;;;22.60;6.00;;;;;;;3.34;44.49;98930.32;105742;1277;99308;-71
2022/02/20 00:03:47;;;;;;;19.40;5.20;;;;;;;3.34;44.70;98932.77;105665;1278;111369;-71
2022/02/20 00:06:17;;;;;;;20.60;6.60;;;;;;;3.32;44.77;98932.83;105823;1277;99259;-69
2022/02/20 00:08:45;;;;;;;22.20;5.50;;;;;;;3.33;45.04;98935.81;105828;1277;107731;-70
2022/02/20 00:11:13;;;;;;;17.90;5.20;;;;;;;3.31;44.61;98931.13;105515;1277;99243;-69
2022/02/20 00:13:41;;;;;;;20.80;5.80;;;;;;;3.30;44.65;98932.08;105595;1279;99215;-71
2022/02/20 00:16:09;;;;;;;20.90;5.50;;;;;;;3.29;44.86;98931.60;105555;1279;112797;-71
2022/02/20 00:18:37;;;;;;;22.30;8.10;;;;;;;3.27;44.69;98928.86;107652;1277;97294;-71
2022/02/20 00:21:05;;;;;;;20.60;5.80;;;;;;;3.27;45.16;98929.92;107661;1277;106441;-70
2022/02/20 00:23:33;;;;;;;19.60;5.50;;;;;;;3.27;44.62;98926.25;107688;1277;97396;-71
2022/02/20 00:26:01;;;;;;;22.00;5.90;;;;;;;3.28;44.43;98931.10;106254;1278;96912;-70
2022/02/20 00:28:29;;;;;;;18.70;6.60;;;;;;;3.28;45.03;98928.80;105908;1279;113437;-70
2022/02/20 00:30:57;;;;;;;18.90;5.90;;;;;;;3.30;44.81;98930.34;105924;1278;99276;-71
2022/02/20 00:33:25;;;;;;;19.40;5.60;;;;;;;3.29;44.84;98927.22;105907;1279;108586;-70
2022/02/20 00:35:53;;;;;;;19.60;5.70;;;;;;;3.27;44.65;98923.42;105907;1279;98321;-70
2022/02/20 00:38:21;;;;;;;20.30;5.50;;;;;;;3.24;44.99;98921.64;105955;1279;99217;-68
2022/02/20 00:40:49;;;;;;;19.30;5.40;;;;;;;3.22;44.98;98916.84;105922;1279;112768;-72
2022/02/20 00:43:18;;;;;;;16.90;4.90;;;;;;;3.21;44.77;98914.61;105842;1279;97372;-71
2022/02/20 00:45:46;;;;;;;20.70;6.00;;;;;;;3.21;44.95;98915.31;105875;1279;107529;-72
2022/02/20 00:48:20;;;;;;;23.00;6.60;;;;;;;3.19;45.08;98916.43;105915;1278;99227;-69
2022/02/20 00:50:49;;;;;;;22.30;7.00;;;;;;;3.16;44.66;98917.63;105910;1279;99321;-71
2022/02/20 00:53:17;;;;;;;21.50;7.00;;;;;;;3.12;45.07;98917.63;105897;1279;112698;-71
2022/02/20 00:55:45;;;;;;;23.40;6.40;;;;;;;3.09;44.84;98918.09;105933;1279;99247;-72
2022/02/20 00:58:13;;;;;;;25.00;6.60;;;;;;;3.06;44.98;98910.70;105874;1278;107800;-71
2022/02/20 01:00:41;;;;;;;24.90;7.60;;;;;;;3.02;45.17;98910.20;105853;1279;99264;-69
2022/02/20 01:03:10;;;;;;;24.20;6.60;;;;;;;2.99;45.25;98908.22;105932;1279;98424;-72
2022/02/20 01:05:38;;;;;;;23.50;6.30;;;;;;;2.96;45.07;98908.14;105958;1279;112820;-71
2022/02/20 01:08:08;;;;;;;22.90;6.60;;;;;;;2.94;44.98;98905.60;105939;1279;97291;-71
2022/02/20 01:10:37;;;;;;;22.60;5.90;;;;;;;2.93;45.31;98903.54;105884;1279;107739;-73
2022/02/20 01:13:05;;;;;;;21.70;5.90;;;;;;;2.92;44.87;98896.60;105927;1279;98028;-71
2022/02/20 01:15:34;;;;;;;22.50;5.90;;;;;;;2.91;45.01;98898.20;105956;1278;100358;-72
2022/02/20 01:18:03;;;;;;;16.90;5.30;;;;;;;2.90;44.93;98892.31;105864;1279;114824;-71
2022/02/20 01:20:31;;;;;;;21.20;6.50;;;;;;;2.90;45.00;98889.49;105955;1279;99277;-71
2022/02/20 01:22:58;;;;;;;26.60;6.00;;;;;;;2.89;45.23;98881.14;105967;1279;107821;-69
2022/02/20 01:25:26;;;;;;;23.10;6.40;;;;;;;2.87;45.55;98876.30;105950;1279;99250;-69
2022/02/20 01:27:57;;;;;;;19.60;6.30;;;;;;;2.87;45.18;98872.84;105772;1279;99234;-71
2022/02/20 01:30:26;;;;;;;18.00;5.60;;;;;;;2.86;45.20;98871.82;105846;1279;112521;-72
2022/02/20 01:32:53;;;;;;;21.40;5.80;;;;;;;2.85;45.19;98870.64;105848;1279;99805;-69
2022/02/20 01:35:21;;;;;;;20.50;6.50;;;;;;;2.85;45.34;98866.98;105842;1279;107730;-71
2022/02/20 01:37:49;;;;;;;18.70;5.40;;;;;;;2.84;45.38;98868.24;105824;1278;99400;-71
2022/02/20 01:40:17;;;;;;;18.30;5.50;;;;;;;2.81;45.30;98868.34;105952;1278;99355;-71
2022/02/20 01:42:45;;;;;;;19.10;5.60;;;;;;;2.80;45.44;98871.52;105830;1279;112777;-70
2022/02/20 01:45:15;;;;;;;22.90;6.00;;;;;;;2.79;45.27;98868.42;105959;1279;99343;-72
2022/02/20 01:47:44;;;;;;;21.80;6.50;;;;;;;2.77;45.42;98865.88;105850;1279;109457;-71
2022/02/20 01:50:15;;;;;;;20.60;5.60;;;;;;;2.75;45.58;98861.77;105859;1279;100396;-71
2022/02/20 01:52:46;;;;;;;18.90;5.60;;;;;;;2.74;45.34;98862.37;105720;1279;99927;-71
2022/02/20 01:55:14;;;;;;;22.80;6.60;;;;;;;2.72;45.38;98860.88;105881;1279;113329;-71
2022/02/20 01:57:42;;;;;;;19.60;6.90;;;;;;;2.70;45.29;98862.17;105862;1279;97261;-71
2022/02/20 02:00:16;;;;;;;21.00;5.60;;;;;;;2.67;45.55;98860.52;105837;1279;108011;-71
2022/02/20 02:02:45;;;;;;;24.20;7.20;;;;;;;2.66;45.54;98859.54;105657;1279;101365;-71
2022/02/20 02:05:13;;;;;;;21.30;6.40;;;;;;;2.65;45.41;98856.27;105950;1279;96710;-71
2022/02/20 02:07:42;;;;;;;21.30;7.30;;;;;;;2.65;45.53;98854.70;105848;1279;112784;-72
2022/02/20 02:10:10;;;;;;;19.60;6.00;;;;;;;2.64;45.71;98849.49;105932;1278;96555;-70
2022/02/20 02:12:38;;;;;;;23.50;7.40;;;;;;;2.63;45.84;98843.58;105842;1279;107570;-69
2022/02/20 02:15:10;;;;;;;22.50;8.30;;;;;;;2.60;45.99;98841.95;105837;1279;97312;-70
2022/02/20 02:17:39;;;;;;;22.30;7.60;;;;;;;2.58;45.61;98834.33;105688;1279;97775;-71
2022/02/20 02:20:08;;;;;;;29.30;7.40;;;;;;;2.58;46.10;98831.52;105810;1279;112770;-70
2022/02/20 02:22:36;;;;;;;24.20;7.80;;;;;;;2.58;45.68;98825.92;105811;1279;99714;-70
2022/02/20 02:25:06;;;;;;;25.50;8.00;;;;;;;2.59;45.67;98825.55;105896;1279;107589;-69
2022/02/20 02:27:35;;;;;;;20.30;6.60;;;;;;;2.58;45.66;98822.23;105747;1279;99914;-70
2022/02/20 02:30:08;;;;;;;23.10;7.70;;;;;;;2.56;45.73;98819.54;105841;1279;99332;-71
2022/02/20 02:32:36;;;;;;;23.40;6.60;;;;;;;2.55;45.96;98811.88;105831;1279;112583;-71
2022/02/20 02:35:05;;;;;;;23.00;7.00;;;;;;;2.53;46.09;98810.72;105887;1279;99344;-71
2022/02/20 02:37:33;;;;;;;20.60;6.10;;;;;;;2.51;46.05;98806.77;105773;1279;106779;-71
2022/02/20 02:40:02;;;;;;;21.50;6.40;;;;;;;2.49;45.90;98807.04;105799;1279;99199;-72
2022/02/20 02:42:29;;;;;;;25.70;7.10;;;;;;;2.48;46.04;98805.15;105755;1279;99203;-70
2022/02/20 02:44:57;;;;;;;22.80;7.00;;;;;;;2.46;45.72;98807.52;105790;1279;112189;-71
2022/02/20 02:47:26;;;;;;;20.00;6.80;;;;;;;2.46;45.80;98807.90;105836;1278;99250;-72
2022/02/20 02:49:54;;;;;;;21.80;6.40;;;;;;;2.45;45.90;98807.05;105841;1279;107579;-71
2022/02/20 02:52:24;;;;;;;21.20;6.90;;;;;;;2.45;45.74;98809.53;105855;1279;97002;-72
2022/02/20 02:54:52;;;;;;;19.40;6.10;;;;;;;2.43;46.08;98807.33;105796;1279;99367;-69
2022/02/20 02:57:22;;;;;;;25.00;6.80;;;;;;;2.42;45.84;98804.07;105863;1277;114126;-72
2022/02/20 02:59:50;;;;;;;21.30;6.00;;;;;;;2.38;45.80;98803.68;105905;1279;97673;-69
2022/02/20 03:02:18;;;;;;;22.40;7.00;;;;;;;2.35;45.94;98801.87;105900;1280;107831;-71
2022/02/20 03:04:46;;;;;;;19.80;7.00;;;;;;;2.32;45.89;98794.68;105827;1279;96564;-70
2022/02/20 03:07:14;;;;;;;17.40;6.60;;;;;;;2.29;46.00;98796.02;105779;1278;97701;-71
2022/02/20 03:09:42;;;;;;;23.30;7.60;;;;;;;2.28;45.89;98793.05;105737;1280;112752;-71
2022/02/20 03:12:10;;;;;;;20.30;6.90;;;;;;;2.27;45.97;98792.24;106600;1278;99323;-72
2022/02/20 03:14:38;;;;;;;22.30;5.80;;;;;;;2.26;46.04;98792.48;106292;1278;107689;-72
2022/02/20 03:17:08;;;;;;;20.90;6.60;;;;;;;2.25;45.87;98794.99;106219;1277;99229;-70
2022/02/20 03:19:36;;;;;;;19.10;6.40;;;;;;;2.23;46.08;98792.42;107679;1277;97161;-72
2022/02/20 03:22:06;;;;;;;22.70;6.40;;;;;;;2.21;45.92;98789.19;106436;1278;112901;-71
2022/02/20 03:24:34;;;;;;;21.70;6.40;;;;;;;2.19;46.00;98783.85;106076;1278;96565;-70
2022/02/20 03:27:01;;;;;;;19.00;6.30;;;;;;;2.18;45.91;98781.64;106003;1279;105811;-71
2022/02/20 03:29:29;;;;;;;21.30;6.20;;;;;;;2.18;46.08;98774.11;105994;1278;98032;-72
2022/02/20 03:31:57;;;;;;;19.70;5.90;;;;;;;2.17;46.12;98771.01;106043;1279;96627;-71
2022/02/20 03:34:25;;;;;;;22.20;6.70;;;;;;;2.15;46.18;98764.95;105243;1279;917157;-70
2022/02/20 03:36:55;;;;;;;22.40;7.00;;;;;;;2.12;46.43;98763.14;105821;1279;96558;-71
2022/02/20 03:39:22;;;;;;;23.20;6.90;;;;;;;2.11;46.63;98758.50;105865;1279;107572;-72
2022/02/20 03:41:50;;;;;;;18.30;5.80;;;;;;;2.09;46.47;98758.73;105884;1279;99328;-71
2022/02/20 03:44:18;;;;;;;21.70;6.80;;;;;;;2.07;46.45;98760.39;105920;1279;99229;-71
2022/02/20 03:46:46;;;;;;;21.70;6.20;;;;;;;2.06;46.86;98752.02;105983;1279;112726;-71
2022/02/20 03:49:14;;;;;;;23.00;5.70;;;;;;;2.05;46.98;98746.12;105952;1279;99225;-71
2022/02/20 03:51:42;;;;;;;16.90;5.40;;;;;;;2.02;46.89;98740.69;105879;1279;107877;-70
2022/02/20 03:54:14;;;;;;;20.80;5.80;;;;;;;1.99;46.73;98731.02;105942;1279;99123;-71
2022/02/20 03:56:43;;;;;;;22.10;5.10;;;;;;;1.96;46.84;98722.39;106000;1279;99238;-72
2022/02/20 03:59:11;;;;;;;19.10;5.30;;;;;;;1.93;47.14;98716.20;106013;1279;110732;-72
2022/02/20 04:01:40;;;;;;;18.10;5.00;;;;;;;1.92;47.21;98715.39;106011;1279;99233;-71
2022/02/20 04:04:08;;;;;;;15.80;5.00;;;;;;;1.90;46.76;98706.04;105868;1279;107948;-72
2022/02/20 04:06:36;;;;;;;16.50;4.50;;;;;;;1.90;46.84;98704.28;105967;1279;99228;-71
2022/02/20 04:09:04;;;;;;;15.20;4.50;;;;;;;1.90;46.75;98701.13;105987;1279;99238;-70
2022/02/20 04:11:32;;;;;;;18.00;5.00;;;;;;;1.89;46.84;98700.11;105991;1278;112948;-72
2022/02/20 04:13:59;;;;;;;17.40;4.10;;;;;;;1.91;46.65;98698.13;105804;1279;99257;-70
2022/02/20 04:16:27;;;;;;;16.80;5.00;;;;;;;1.91;46.97;98694.42;105803;1279;108561;-72
2022/02/20 04:18:56;;;;;;;17.20;5.10;;;;;;;1.92;46.81;98688.63;105879;1279;99235;-72
2022/02/20 04:21:23;;;;;;;21.70;5.30;;;;;;;1.94;46.60;98689.08;105969;1279;99310;-71
2022/02/20 04:23:53;;;;;;;20.70;5.50;;;;;;;1.95;46.89;98690.77;105803;1279;112734;-71
2022/02/20 04:26:23;;;;;;;21.00;5.30;;;;;;;1.95;46.76;98685.01;105806;1279;99073;-70
2022/02/20 04:28:50;;;;;;;18.60;5.00;;;;;;;1.95;46.69;98676.79;105849;1279;107481;-71
2022/02/20 04:31:20;;;;;;;16.90;4.50;;;;;;;1.96;46.62;98673.45;105875;1279;99144;-72
2022/02/20 04:33:48;;;;;;;21.90;4.70;;;;;;;1.93;46.69;98661.11;105860;1279;99363;-71
2022/02/20 04:36:16;;;;;;;14.80;4.30;;;;;;;1.92;46.67;98653.98;105844;1279;111113;-72
2022/02/20 04:38:44;;;;;;;15.90;4.60;;;;;;;1.92;46.52;98649.27;105826;1281;99320;-71
2022/02/20 04:41:12;;;;;;;12.70;3.90;;;;;;;1.92;46.80;98641.03;105872;1279;107792;-72
2022/02/20 04:43:40;;;;;;;20.10;4.60;;;;;;;1.92;46.95;98638.80;105848;1279;96573;-72
2022/02/20 04:46:09;;;;;;;13.10;4.00;;;;;;;1.91;46.81;98627.28;105977;1279;96634;-70
2022/02/20 04:48:37;;;;;;;14.90;3.90;;;;;;;1.91;46.84;98622.23;105868;1279;112795;-71
2022/02/20 04:51:05;;;;;;;16.70;4.40;;;;;;;1.92;46.96;98623.59;105917;1279;99281;-72
2022/02/20 04:53:33;;;;;;;13.90;3.30;;;;;;;1.90;46.99;98621.02;105938;1279;107746;-70
2022/02/20 04:56:00;;;;;;;14.90;3.80;;;;;;;1.91;47.08;98620.48;105916;1279;96668;-70
2022/02/20 04:58:28;;;;;;;17.90;4.30;;;;;;;1.90;47.12;98623.83;106031;1279;99327;-69
2022/02/20 05:00:58;;;;;;;12.80;3.90;;;;;;;1.89;47.29;98625.98;105970;1280;112727;-70
2022/02/20 05:03:26;;;;;;;15.50;3.60;;;;;;;1.89;47.05;98623.01;106000;1279;99234;-69
2022/02/20 05:05:56;;;;;;;11.90;3.30;;;;;;;1.89;47.24;98620.91;105969;1279;107898;-70
2022/02/20 05:08:24;;;;;;;12.30;3.40;;;;;;;1.88;47.03;98622.88;105944;1279;100350;-72
2022/02/20 05:10:51;;;;;;;17.40;4.80;;;;;;;1.87;47.02;98625.70;105954;1279;99334;-72
2022/02/20 05:13:19;;;;;;;13.00;3.90;;;;;;;1.87;47.19;98626.73;105985;1279;112746;-70
2022/02/20 05:15:47;;;;;;;14.70;3.50;;;;;;;1.88;47.35;98624.11;105866;1279;97297;-69
2022/02/20 05:18:15;;;;;;;19.70;4.30;;;;;;;1.88;47.18;98623.77;105896;1279;107441;-69
2022/02/20 05:20:47;;;;;;;17.80;3.80;;;;;;;1.87;47.13;98622.58;105832;1279;99311;-71
2022/02/20 05:23:15;;;;;;;13.90;3.70;;;;;;;1.88;47.02;98625.66;105935;1279;96770;-70
2022/02/20 05:25:42;;;;;;;13.50;3.60;;;;;;;1.88;47.10;98620.23;105944;1279;112766;-71
2022/02/20 05:28:10;;;;;;;14.60;3.80;;;;;;;1.89;47.33;98616.55;105992;1279;99344;-70
2022/02/20 05:30:38;;;;;;;14.60;3.70;;;;;;;1.89;47.47;98614.28;105947;1279;107867;-71
2022/02/20 05:33:06;;;;;;;16.10;4.20;;;;;;;1.89;47.42;98610.40;105875;1279;97185;-70
2022/02/20 05:35:36;;;;;;;21.40;4.50;;;;;;;1.88;47.28;98607.98;105905;1279;99995;-70
2022/02/20 05:38:03;;;;;;;16.20;3.80;;;;;;;1.87;47.34;98611.70;105914;1279;112749;-71
2022/02/20 05:40:31;;;;;;;15.10;4.30;;;;;;;1.86;47.50;98612.45;105984;1279;99262;-70
2022/02/20 05:42:59;;;;;;;20.00;5.20;;;;;;;1.83;47.55;98605.60;105941;1279;107551;-71
2022/02/20 05:45:29;;;;;;;16.60;4.20;;;;;;;1.74;47.58;98600.07;105891;1279;99254;-70
2022/02/20 05:47:57;;;;;;;23.00;5.40;;;;;;;1.69;47.71;98598.54;105991;1279;99311;-69
2022/02/20 05:50:26;;;;;;;22.20;5.00;;;;;;;1.63;47.74;98603.32;105921;1279;112409;-71
2022/02/20 05:52:57;;;;;;;18.30;5.40;;;;;;;1.59;47.82;98598.80;105933;1279;99294;-70
2022/02/20 05:55:26;;;;;;;23.50;6.00;;;;;;;1.52;47.91;98595.44;105995;1278;107736;-72
2022/02/20 05:57:57;;;;;;;25.00;5.50;;;;;;;1.45;48.03;98599.73;105984;1279;99245;-69
2022/02/20 06:00:28;;;;;;;20.20;6.20;;;;;;;1.41;48.20;98597.46;105990;1278;99238;-71
2022/02/20 06:02:56;;;;;;;18.60;4.90;;;;;;;1.38;48.18;98596.37;105960;1278;112746;-71
2022/02/20 06:05:25;;;;;;;16.60;5.10;;;;;;;1.39;48.32;98586.36;105926;1278;99332;-70
2022/02/20 06:07:53;;;;;;;17.20;5.00;;;;;;;1.42;48.18;98589.02;105972;1277;107757;-69
2022/02/20 06:10:21;;;;;;;13.20;3.10;;;;;;;1.50;48.54;98588.52;105970;1277;99271;-71
2022/02/20 06:12:49;;;;;;;10.00;3.20;;;;;;;1.65;48.61;98583.86;105981;1279;99410;-72
2022/02/20 06:15:17;;;;;;;9.80;2.50;;;;;;;1.80;48.41;98580.75;105920;1278;111896;-72
2022/02/20 06:17:44;;;;;;;12.50;3.10;;;;;;;1.95;48.41;98573.09;105888;1278;97660;-72
2022/02/20 06:20:14;;;;;;;11.80;3.40;;;;;;;2.08;48.28;98567.77;105890;1278;107475;-71
2022/02/20 06:22:42;;;;;;;13.30;3.30;;;;;;;2.18;48.07;98562.06;105990;1277;99466;-71
2022/02/20 06:25:11;;;;;;;13.20;3.60;;;;;;;2.26;47.99;98562.92;105893;1278;97756;-70
2022/02/20 06:27:39;;;;;;;10.90;3.10;;;;;;;2.34;47.99;98563.96;105908;1278;112870;-71
2022/02/20 06:30:21;;;;;;;17.00;3.60;;;;;;;2.41;47.81;98558.37;105829;1278;97351;-72
2022/02/20 06:32:49;;;;;;;14.50;3.40;;;;;;;2.48;47.72;98555.59;105913;1277;107800;-71
2022/02/20 06:35:19;;;;;;;11.60;3.20;;;;;;;2.55;47.62;98556.31;105989;1277;99247;-72
2022/02/20 06:37:47;;;;;;;9.60;3.10;;;;;;;2.61;47.65;98551.64;105959;1277;99291;-71
2022/02/20 06:40:15;;;;;;;9.80;2.80;;;;;;;2.66;47.42;98549.13;105912;1277;112592;-70
2022/02/20 06:42:43;;;;;;;10.30;3.20;;;;;;;2.71;47.57;98540.13;105998;1278;99257;-71
2022/02/20 06:45:13;;;;;;;11.30;3.00;;;;;;;2.76;47.50;98533.41;105909;1279;107595;-72
2022/02/20 06:47:42;;;;;;;9.00;2.80;;;;;;;2.80;47.22;98531.29;105897;1277;99268;-70
2022/02/20 06:50:10;;;;;;;12.30;3.20;;;;;;;2.85;46.95;98528.60;105912;1278;96665;-69
2022/02/20 06:52:38;;;;;;;12.60;2.80;;;;;;;2.91;47.22;98517.27;105889;1279;112796;-71
2022/02/20 06:55:07;;;;;;;11.20;2.50;;;;;;;2.97;46.89;98509.41;105918;1279;99783;-72
2022/02/20 06:57:38;;;;;;;10.20;2.90;;;;;;;3.05;46.93;98501.33;105922;1279;107823;-72
2022/02/20 07:00:12;;;;;;;10.00;3.00;;;;;;;3.11;46.38;98499.42;105928;1279;100393;-74
2022/02/20 07:02:41;;;;;;;;;;;;;;;3.18;46.60;98495.96;105885;1280;99270;-73
2022/02/20 07:05:11;;;;;;;9.20;3.10;;;;;;;3.20;46.41;98491.96;105831;1280;111732;-73
2022/02/20 07:07:38;;;;;;;8.30;2.60;;;;;;;3.24;46.65;98486.85;105906;1279;99237;-75
2022/02/20 07:10:08;;;;;;;7.00;2.90;;;;;;;3.27;46.49;98478.30;105806;1279;107894;-73
2022/02/20 07:12:38;;;;;;;11.70;3.20;;;;;;;3.29;46.61;98483.27;105758;1281;96744;-69
2022/02/20 07:15:08;;;;;;;10.10;3.20;;;;;;;3.32;46.67;98486.27;105877;1279;99224;-76
2022/02/20 07:17:36;;;;;;;16.50;4.30;;;;;;;3.34;46.60;98481.96;105799;1279;112926;-70
2022/02/20 07:20:05;;;;;;;11.70;3.70;;;;;;;3.40;46.74;98482.54;105791;1280;97705;-69
2022/02/20 07:22:35;;;;;;;12.60;4.20;;;;;;;3.42;46.83;98478.73;105787;1279;107744;-68
2022/02/20 07:25:05;;;;;;;14.30;3.40;;;;;;;3.43;47.03;98472.73;105830;1279;99289;-69
2022/02/20 07:27:44;;;;;;;16.00;4.60;;;;;;;3.46;46.71;98471.55;105840;1279;97797;-69
2022/02/20 07:30:14;;;;;;;15.30;4.50;;;;;;;3.46;46.99;98467.70;105833;1280;112555;-67
2022/02/20 07:32:42;;;;;;;14.40;4.00;;;;;;;3.47;46.82;98465.16;105826;1279;96602;-69
2022/02/20 07:35:11;;;;;;;15.20;4.00;;;;;;;3.50;46.83;98472.55;105754;1281;108430;-69
2022/02/20 07:37:40;;;;;;;13.30;3.80;;;;;;;3.51;46.80;98471.63;105784;1279;99369;-68
2022/02/20 07:40:11;;;;;;;13.80;4.40;;;;;;;3.51;46.65;98463.91;105919;1280;99272;-67
2022/02/20 07:42:39;;;;;;;14.70;4.70;;;;;;;3.55;46.79;98461.73;105813;1280;112669;-67
2022/02/20 07:45:08;;;;;;;14.20;4.60;;;;;;;3.60;47.02;98457.30;105851;1279;99262;-68
2022/02/20 07:47:48;;;;;;;18.60;4.70;;;;;;;3.65;46.78;98452.09;105732;1279;109174;-66
2022/02/20 07:50:17;;;;;;;17.50;4.50;;;;;;;3.71;46.68;98463.52;105754;1281;99296;-70
2022/02/20 07:52:47;;;;;;;11.20;3.60;;;;;;;3.75;46.74;98467.22;105817;1280;99348;-69
2022/02/20 07:55:17;;;;;;;16.30;4.50;;;;;;;3.77;46.67;98467.11;105743;1281;113652;-69
2022/02/20 07:57:46;;;;;;;14.50;4.50;;;;;;;3.80;46.90;98462.91;105887;1281;99097;-70
2022/02/20 08:00:18;;;;;;;13.10;3.90;;;;;;;3.83;46.66;98466.23;105814;1279;108341;-70
2022/02/20 08:02:46;;;;;;;15.20;4.00;;;;;;;3.85;46.69;98458.56;105865;1279;99844;-69
2022/02/20 08:05:14;;;;;;;12.50;3.80;;;;;;;3.88;46.78;98458.75;105898;1280;99440;-69
2022/02/20 08:07:42;;;;;;;9.00;3.20;;;;;;;3.91;46.72;98457.36;105854;1278;112791;-69
2022/02/20 08:10:10;;;;;;;13.70;3.20;;;;;;;3.97;46.65;98454.57;105873;1281;99246;-70
2022/02/20 08:12:39;;;;;;;15.80;3.90;;;;;;;4.05;46.73;98452.38;105782;1280;107230;-70
2022/02/20 08:15:08;;;;;;;13.20;3.40;;;;;;;4.15;46.67;98449.55;105842;1281;99354;-69
2022/02/20 08:17:50;;;;;;;10.80;3.20;;;;;;;4.28;46.65;98443.05;105809;1280;99230;-70
2022/02/20 08:20:19;;;;;;;11.70;3.10;;;;;;;4.43;46.50;98446.96;105807;1280;113405;-69
2022/02/20 08:22:47;;;;;;;9.70;3.10;;;;;;;4.51;46.24;98440.52;105811;1280;98444;-71
2022/02/20 08:25:17;;;;;;;11.50;3.50;;;;;;;4.54;46.40;98434.39;105869;1281;108615;-70
2022/02/20 08:27:54;;;;;;;9.80;3.90;;;;;;;4.55;46.28;98436.95;105799;1281;99231;-69
2022/02/20 08:30:22;;;;;;;12.30;3.50;;;;;;;4.52;46.11;98434.82;105802;1281;99330;-71
2022/02/20 08:32:49;;;;;;;12.70;3.20;;;;;;;4.52;46.05;98427.98;105706;1281;113381;-69
2022/02/20 08:35:18;;;;;;;10.30;3.20;;;;;;;4.50;45.83;98423.52;105859;1280;99254;-69
2022/02/20 08:37:46;;;;;;;9.70;3.40;;;;;;;4.49;45.75;98428.69;105742;1280;108305;-69
2022/02/20 08:40:19;;;;;;;12.80;3.70;;;;;;;4.48;45.78;98432.44;105714;1280;99216;-69
2022/02/20 08:42:52;;;;;;;10.20;3.20;;;;;;;4.46;45.69;98426.38;105880;1279;99307;-70
2022/02/20 08:45:23;;;;;;;10.30;3.20;;;;;;;4.45;45.42;98427.15;105786;1281;112722;-72
2022/02/20 08:47:50;;;;;;;9.30;3.10;;;;;;;4.44;45.22;98427.56;105859;1280;99087;-70
2022/02/20 08:50:18;;;;;;;12.00;3.10;;;;;;;4.43;45.41;98422.38;105817;1281;109575;-71
2022/02/20 08:52:46;;;;;;;14.80;2.70;;;;;;;4.43;45.52;98425.36;105796;1281;96656;-71
2022/02/20 08:55:16;;;;;;;12.70;3.30;;;;;;;4.41;45.09;98421.05;105854;1281;100055;-70
2022/02/20 08:57:45;;;;;;;11.30;3.70;;;;;;;4.40;44.97;98425.36;105820;1278;111325;-72
2022/02/20 09:00:16;;;;;;;10.90;3.40;;;;;;;4.39;45.17;98422.79;105764;1281;96667;-69
2022/02/20 09:02:44;;;;;;;11.90;3.40;;;;;;;4.39;45.01;98419.61;105705;1281;107778;-71
2022/02/20 09:05:14;;;;;;;12.50;3.30;;;;;;;4.38;44.67;98419.84;105724;1281;98989;-71
2022/02/20 09:07:44;;;;;;;14.90;3.40;;;;;;;4.37;44.71;98422.91;105713;1281;96645;-70
2022/02/20 09:10:12;;;;;;;8.90;3.20;;;;;;;4.36;44.39;98422.92;105814;1279;113567;-70
2022/02/20 09:12:45;;;;;;;13.20;4.10;;;;;;;4.35;44.62;98423.71;105873;1281;99221;-71
2022/02/20 09:15:14;;;;;;;13.30;4.00;;;;;;;4.35;44.57;98424.42;105756;1280;107816;-70
2022/02/20 09:17:41;;;;;;;14.20;3.80;;;;;;;4.36;44.50;98418.52;105782;1281;99196;-72
2022/02/20 09:20:12;;;;;;;13.20;4.20;;;;;;;4.38;44.70;98414.57;105851;1281;99258;-70
2022/02/20 09:22:42;;;;;;;13.60;4.10;;;;;;;4.40;44.36;98413.95;105910;1281;113070;-70
2022/02/20 09:25:15;;;;;;;14.00;4.00;;;;;;;4.41;44.36;98411.26;105982;1281;97056;-70
2022/02/20 09:27:43;;;;;;;9.50;3.50;;;;;;;4.43;44.21;98414.83;105963;1279;106853;-70
2022/02/20 09:30:12;;;;;;;12.90;4.00;;;;;;;4.45;44.62;98416.11;105876;1281;99349;-71
2022/02/20 09:32:40;;;;;;;21.00;4.30;;;;;;;4.49;44.51;98416.42;105708;1281;99320;-71
2022/02/20 09:35:08;;;;;;;12.30;3.10;;;;;;;4.51;44.52;98416.60;105678;1281;112429;-70
2022/02/20 09:37:36;;;;;;;13.40;3.90;;;;;;;4.55;44.54;98420.26;105669;1281;99216;-70
2022/02/20 09:40:05;;;;;;;18.90;4.80;;;;;;;4.57;44.48;98417.82;105649;1279;106216;-71
2022/02/20 09:42:33;;;;;;;14.00;3.40;;;;;;;4.60;44.42;98419.43;105673;1279;99337;-69
2022/02/20 09:45:01;;;;;;;14.40;4.50;;;;;;;4.63;44.32;98420.66;105678;1281;99349;-70
2022/02/20 09:47:31;;;;;;;13.80;4.10;;;;;;;4.68;44.58;98419.71;105716;1281;112763;-70
2022/02/20 09:50:03;;;;;;;14.20;4.00;;;;;;;4.72;44.21;98423.65;105849;1278;99808;-68
2022/02/20 09:52:31;;;;;;;14.20;4.00;;;;;;;4.75;44.24;98426.66;105797;1281;108344;-69
2022/02/20 09:54:59;;;;;;;13.30;3.70;;;;;;;4.79;44.43;98424.67;105758;1280;99146;-68
2022/02/20 09:57:29;;;;;;;12.60;3.60;;;;;;;4.83;44.36;98421.59;105758;1280;99232;-70
2022/02/20 09:59:59;;;;;;;13.30;4.10;;;;;;;4.88;44.22;98419.05;105720;1279;113002;-71
2022/02/20 10:02:36;;;;;;;13.90;4.00;;;;;;;4.90;44.19;98418.89;105436;1280;99283;-71
2022/02/20 10:05:08;;;;;;;15.70;3.90;;;;;;;4.94;44.25;98430.79;105773;1281;107729;-70
2022/02/20 10:07:39;;;;;;;15.70;4.20;;;;;;;4.98;44.24;98423.01;105722;1280;99458;-71
2022/02/20 10:10:16;;;;;;;13.90;4.20;;;;;;;5.03;44.19;98420.58;105699;1280;96550;-72
2022/02/20 10:12:46;;;;;;;18.60;4.80;;;;;;;5.08;44.26;98421.55;105682;1279;112869;-70
2022/02/20 10:15:40;;;;;;;15.90;3.80;;;;;;;5.12;44.19;98415.36;105682;1281;99291;-71
2022/02/20 10:18:10;;;;;;;17.50;4.10;;;;;;;5.14;44.22;98412.41;105752;1280;107774;-69
2022/02/20 10:20:41;;;;;;;17.10;4.20;;;;;;;5.17;44.22;98411.87;105703;1279;99304;-71
2022/02/20 10:23:12;;;;;;;18.00;4.60;;;;;;;5.22;44.18;98407.20;105315;1280;97701;-71
2022/02/20 10:25:45;;;;;;;17.20;4.40;;;;;;;5.26;44.28;98402.71;105732;1281;112529;-70
2022/02/20 10:28:14;;;;;;;15.30;4.70;;;;;;;5.28;44.13;98406.29;105772;1281;97847;-69
2022/02/20 10:30:43;;;;;;;15.40;4.60;;;;;;;5.29;44.27;98406.39;105690;1281;108825;-68
2022/02/20 10:33:20;;;;;;;18.80;5.20;;;;;;;5.29;44.21;98408.67;105742;1281;99344;-68
2022/02/20 10:35:52;;;;;;;17.40;5.40;;;;;;;5.28;44.25;98406.98;105735;1280;97488;-71
2022/02/20 10:38:24;;;;;;;17.30;5.20;;;;;;;5.29;44.26;98402.86;105733;1278;112782;-71
2022/02/20 10:40:56;;;;;;;16.40;5.50;;;;;;;5.29;44.33;98403.77;105811;1280;97271;-71
2022/02/20 10:43:34;;;;;;;16.90;5.20;;;;;;;5.29;44.17;98397.04;105753;1279;107556;-72
2022/02/20 10:46:13;;;;;;;15.90;4.70;;;;;;;5.30;44.26;98395.08;105677;1281;97305;-71
2022/02/20 10:48:44;;;;;;;18.40;5.40;;;;;;;5.31;44.34;98391.29;105837;1279;99268;-72
2022/02/20 10:51:18;;;;;;;16.70;5.10;;;;;;;5.35;44.37;98393.52;105651;1280;112776;-72
2022/02/20 10:53:48;;;;;;;18.50;4.70;;;;;;;5.37;44.35;98390.41;105930;1279;99227;-71
2022/02/20 10:56:41;;;;;;;13.50;4.70;;;;;;;5.37;44.31;98387.05;105793;1279;108005;-70
2022/02/20 10:59:10;;;;;;;13.80;3.90;;;;;;;5.38;44.40;98384.73;105825;1280;97978;-70
2022/02/20 11:01:37;;;;;;;11.20;3.50;;;;;;;5.41;44.64;98390.17;106926;1279;99243;-71
2022/02/20 11:04:10;;;;;;;10.20;3.30;;;;;;;5.44;44.73;98389.14;105848;1279;112932;-70
2022/02/20 11:06:40;;;;;;;12.40;3.20;;;;;;;5.48;44.84;98390.44;105907;1280;98129;-70
2022/02/20 11:09:08;;;;;;;7.90;2.60;;;;;;;5.54;45.20;98389.23;105479;1279;108277;-70
2022/02/20 11:11:39;;;;;;;6.70;2.30;;;;;;;5.58;45.24;98391.04;105522;1277;99349;-70
2022/02/20 11:14:14;;;;;;;5.50;2.40;;;;;;;5.63;45.86;98389.69;105773;1277;97249;-72
2022/02/20 11:16:50;;;;;;;8.00;2.40;;;;;;;5.68;45.55;98391.52;105821;1279;112927;-71
2022/02/20 11:19:23;;;;;;;7.10;2.30;;;;;;;5.72;46.53;98393.34;105856;1277;99406;-70
2022/02/20 11:21:52;;;;;;;;;;;;;;;5.75;46.05;98395.45;105625;1279;108394;-71
2022/02/20 11:24:27;;;;;;;5.70;2.80;;;;;;;5.78;47.22;98396.69;106582;1277;97804;-70
2022/02/20 11:27:01;;;;;;;7.80;2.60;;;;;;;5.78;46.70;98393.50;105480;1281;99344;-70
2022/02/20 11:29:30;;;;;;;5.50;2.20;;;;;;;5.81;47.01;98401.05;105581;1277;112985;-68
2022/02/20 11:31:58;;;;;;;6.20;2.60;;;;;;;5.82;47.81;98402.75;105713;1280;99336;-70